Terminal Aerodrome Forecast
Issued by NWS Shreveport, LA

Home | Current Version | Previous Version | Text Only | Print | Product List | Glossary On
Versions: 1 2 3 4 5 6 7 8 9 10 11 12 13 14 15 16 17
000
FTUS44 KSHV 251100 RRA
TAFMLU
TAF
KMLU 251143Z 2512/2612 04003KT P6SM SCT030 BKN250
     FM251500 VRB04KT P6SM SCT040 SCT250
     FM260100 VRB03KT P6SM SKC
     FM261000 VRB02KT 5SM BR SKC=

USA.gov is the U.S. government's official web portal to all federal, state and local government web resources and services.